sensor_id;sensor_type;location;lat;lon;timestamp;pressure;altitude;pressure_sealevel;temperature;humidity
43119;BME280;28729;49.838;8.650;2022-09-03T00:00:13;99340.72;;;18.30;43.08
43119;BME280;28729;49.838;8.650;2022-09-03T00:04:26;99339.59;;;18.31;42.81
43119;BME280;28729;49.838;8.650;2022-09-03T00:08:33;99337.94;;;18.30;43.15
43119;BME280;28729;49.838;8.650;2022-09-03T00:12:42;99339.38;;;18.28;43.12
43119;BME280;28729;49.838;8.650;2022-09-03T00:16:58;99345.78;;;18.28;43.24
43119;BME280;28729;49.838;8.650;2022-09-03T00:21:03;99341.84;;;18.29;43.02
43119;BME280;28729;49.838;8.650;2022-09-03T00:25:26;99337.13;;;18.30;43.26
43119;BME280;28729;49.838;8.650;2022-09-03T00:29:38;99326.59;;;18.27;43.41
43119;BME280;28729;49.838;8.650;2022-09-03T00:33:43;99328.34;;;18.22;43.35
43119;BME280;28729;49.838;8.650;2022-09-03T00:37:47;99334.88;;;18.18;43.71
43119;BME280;28729;49.838;8.650;2022-09-03T00:41:53;99320.94;;;18.18;43.67
43119;BME280;28729;49.838;8.650;2022-09-03T01:03:08;99329.88;;;18.29;43.74
43119;BME280;28729;49.838;8.650;2022-09-03T01:11:44;99337.22;;;18.38;43.46
43119;BME280;28729;49.838;8.650;2022-09-03T01:20:31;99333.78;;;18.41;43.23
43119;BME280;28729;49.838;8.650;2022-09-03T01:29:09;99321.69;;;18.46;43.35
43119;BME280;28729;49.838;8.650;2022-09-03T01:33:33;99325.09;;;18.43;43.66
43119;BME280;28729;49.838;8.650;2022-09-03T01:37:52;99316.44;;;18.44;43.38
43119;BME280;28729;49.838;8.650;2022-09-03T01:46:25;99316.09;;;18.46;43.46
43119;BME280;28729;49.838;8.650;2022-09-03T01:55:27;99324.56;;;18.41;43.89
43119;BME280;28729;49.838;8.650;2022-09-03T01:59:34;99335.44;;;18.42;44.13
43119;BME280;28729;49.838;8.650;2022-09-03T02:03:40;99332.31;;;18.44;44.05
43119;BME280;28729;49.838;8.650;2022-09-03T02:07:47;99337.41;;;18.42;44.29
43119;BME280;28729;49.838;8.650;2022-09-03T02:11:55;99340.38;;;18.45;43.83
43119;BME280;28729;49.838;8.650;2022-09-03T02:16:04;99333.66;;;18.47;44.33
43119;BME280;28729;49.838;8.650;2022-09-03T02:20:09;99335.63;;;18.46;44.26
43119;BME280;28729;49.838;8.650;2022-09-03T02:24:12;99334.47;;;18.47;44.33
43119;BME280;28729;49.838;8.650;2022-09-03T02:28:14;99326.53;;;18.54;43.99
43119;BME280;28729;49.838;8.650;2022-09-03T02:32:18;99349.56;;;18.60;43.75
43119;BME280;28729;49.838;8.650;2022-09-03T02:36:24;99339.50;;;18.59;43.88
43119;BME280;28729;49.838;8.650;2022-09-03T02:40:28;99335.91;;;18.58;44.15
43119;BME280;28729;49.838;8.650;2022-09-03T02:44:32;99338.88;;;18.62;44.07
43119;BME280;28729;49.838;8.650;2022-09-03T02:48:38;99340.22;;;18.64;43.92
43119;BME280;28729;49.838;8.650;2022-09-03T02:52:39;99337.44;;;18.64;44.19
43119;BME280;28729;49.838;8.650;2022-09-03T02:56:42;99332.69;;;18.65;44.11
43119;BME280;28729;49.838;8.650;2022-09-03T03:00:44;99329.06;;;18.64;44.22
43119;BME280;28729;49.838;8.650;2022-09-03T03:04:45;99333.50;;;18.65;44.36
43119;BME280;28729;49.838;8.650;2022-09-03T03:08:48;99330.09;;;18.68;44.32
43119;BME280;28729;49.838;8.650;2022-09-03T03:12:50;99342.09;;;18.69;44.44
43119;BME280;28729;49.838;8.650;2022-09-03T03:16:52;99336.16;;;18.71;44.32
43119;BME280;28729;49.838;8.650;2022-09-03T03:20:53;99329.28;;;18.68;44.61
43119;BME280;28729;49.838;8.650;2022-09-03T03:24:55;99326.16;;;18.70;44.58
43119;BME280;28729;49.838;8.650;2022-09-03T03:29:00;99321.72;;;18.68;45.01
43119;BME280;28729;49.838;8.650;2022-09-03T03:33:01;99316.78;;;18.65;44.92
43119;BME280;28729;49.838;8.650;2022-09-03T03:37:04;99322.34;;;18.65;44.93
43119;BME280;28729;49.838;8.650;2022-09-03T03:41:11;99321.22;;;18.66;45.10
43119;BME280;28729;49.838;8.650;2022-09-03T03:45:13;99326.72;;;18.58;45.24
43119;BME280;28729;49.838;8.650;2022-09-03T03:49:15;99334.19;;;18.49;45.55
43119;BME280;28729;49.838;8.650;2022-09-03T03:53:16;99336.97;;;18.49;46.07
43119;BME280;28729;49.838;8.650;2022-09-03T03:57:19;99338.59;;;18.50;45.90
43119;BME280;28729;49.838;8.650;2022-09-03T04:01:23;99340.38;;;18.45;46.23
43119;BME280;28729;49.838;8.650;2022-09-03T04:05:25;99337.50;;;18.37;46.45
43119;BME280;28729;49.838;8.650;2022-09-03T04:09:33;99339.66;;;18.40;46.03
43119;BME280;28729;49.838;8.650;2022-09-03T04:13:38;99342.38;;;18.31;47.10
43119;BME280;28729;49.838;8.650;2022-09-03T04:17:39;99343.72;;;18.34;46.85
43119;BME280;28729;49.838;8.650;2022-09-03T04:21:41;99338.47;;;18.32;46.53
43119;BME280;28729;49.838;8.650;2022-09-03T04:25:43;99337.13;;;18.30;46.92
43119;BME280;28729;49.838;8.650;2022-09-03T04:29:48;99320.69;;;18.28;47.32
43119;BME280;28729;49.838;8.650;2022-09-03T04:33:50;99322.13;;;18.26;47.40
43119;BME280;28729;49.838;8.650;2022-09-03T04:37:52;99320.78;;;18.23;47.60
43119;BME280;28729;49.838;8.650;2022-09-03T04:41:55;99331.13;;;18.22;47.61
43119;BME280;28729;49.838;8.650;2022-09-03T04:46:02;99330.00;;;18.24;47.47
43119;BME280;28729;49.838;8.650;2022-09-03T04:50:05;99335.78;;;18.27;47.42
43119;BME280;28729;49.838;8.650;2022-09-03T04:54:06;99337.31;;;18.19;48.36
43119;BME280;28729;49.838;8.650;2022-09-03T04:58:10;99333.91;;;18.22;47.94
43119;BME280;28729;49.838;8.650;2022-09-03T05:02:11;99331.94;;;18.23;47.83
43119;BME280;28729;49.838;8.650;2022-09-03T05:06:15;99332.06;;;18.18;48.13
43119;BME280;28729;49.838;8.650;2022-09-03T05:10:17;99336.69;;;18.22;48.39
43119;BME280;28729;49.838;8.650;2022-09-03T05:14:22;99340.22;;;18.28;48.43
43119;BME280;28729;49.838;8.650;2022-09-03T05:18:24;99349.72;;;18.27;48.61
43119;BME280;28729;49.838;8.650;2022-09-03T05:22:26;99352.72;;;18.31;48.16
43119;BME280;28729;49.838;8.650;2022-09-03T05:26:29;99345.97;;;18.32;48.47
43119;BME280;28729;49.838;8.650;2022-09-03T05:30:31;99356.22;;;18.36;48.17
43119;BME280;28729;49.838;8.650;2022-09-03T05:34:33;99358.69;;;18.38;48.59
43119;BME280;28729;49.838;8.650;2022-09-03T05:38:35;99371.19;;;18.40;48.36
43119;BME280;28729;49.838;8.650;2022-09-03T05:42:37;99380.38;;;18.41;48.64
43119;BME280;28729;49.838;8.650;2022-09-03T05:46:39;99368.09;;;18.42;48.70
43119;BME280;28729;49.838;8.650;2022-09-03T05:50:41;99378.63;;;18.45;48.60
43119;BME280;28729;49.838;8.650;2022-09-03T05:54:42;99389.78;;;18.45;48.86
43119;BME280;28729;49.838;8.650;2022-09-03T05:58:46;99387.47;;;18.47;49.15
43119;BME280;28729;49.838;8.650;2022-09-03T06:02:52;99389.34;;;18.52;48.95
43119;BME280;28729;49.838;8.650;2022-09-03T06:06:54;99394.94;;;18.52;49.86
43119;BME280;28729;49.838;8.650;2022-09-03T06:10:57;99405.59;;;18.36;52.75
43119;BME280;28729;49.838;8.650;2022-09-03T06:14:59;99404.91;;;18.03;58.56
43119;BME280;28729;49.838;8.650;2022-09-03T06:19:02;99411.41;;;17.65;62.59
43119;BME280;28729;49.838;8.650;2022-09-03T06:23:04;99412.78;;;17.35;66.22
43119;BME280;28729;49.838;8.650;2022-09-03T06:27:05;99421.47;;;17.15;66.57
43119;BME280;28729;49.838;8.650;2022-09-03T06:31:11;99428.69;;;16.97;69.87
43119;BME280;28729;49.838;8.650;2022-09-03T06:35:15;99435.47;;;16.91;71.14
43119;BME280;28729;49.838;8.650;2022-09-03T06:39:17;99438.94;;;16.82;72.74
43119;BME280;28729;49.838;8.650;2022-09-03T06:43:18;99437.06;;;16.78;77.85
43119;BME280;28729;49.838;8.650;2022-09-03T06:47:20;99432.97;;;16.89;78.50
43119;BME280;28729;49.838;8.650;2022-09-03T06:51:25;99438.56;;;17.08;78.07
43119;BME280;28729;49.838;8.650;2022-09-03T06:55:27;99442.84;;;17.19;79.38
43119;BME280;28729;49.838;8.650;2022-09-03T06:59:29;99451.56;;;17.31;79.08
43119;BME280;28729;49.838;8.650;2022-09-03T07:03:31;99450.84;;;17.40;78.15
43119;BME280;28729;49.838;8.650;2022-09-03T07:07:33;99451.78;;;17.35;82.70
43119;BME280;28729;49.838;8.650;2022-09-03T07:11:35;99443.41;;;17.35;84.21
43119;BME280;28729;49.838;8.650;2022-09-03T07:15:37;99443.84;;;17.42;83.53
43119;BME280;28729;49.838;8.650;2022-09-03T07:19:40;99447.97;;;17.45;85.08
43119;BME280;28729;49.838;8.650;2022-09-03T07:23:42;99449.00;;;17.49;82.93
43119;BME280;28729;49.838;8.650;2022-09-03T07:27:44;99442.94;;;17.47;83.84
43119;BME280;28729;49.838;8.650;2022-09-03T07:31:48;99440.84;;;17.39;83.90
43119;BME280;28729;49.838;8.650;2022-09-03T07:35:53;99453.38;;;17.22;85.83
43119;BME280;28729;49.838;8.650;2022-09-03T07:39:55;99457.44;;;17.11;85.42
43119;BME280;28729;49.838;8.650;2022-09-03T07:43:57;99452.00;;;17.01;89.09
43119;BME280;28729;49.838;8.650;2022-09-03T07:48:00;99462.31;;;17.00;90.15
43119;BME280;28729;49.838;8.650;2022-09-03T07:52:01;99448.41;;;17.00;90.31
43119;BME280;28729;49.838;8.650;2022-09-03T07:56:07;99456.09;;;16.90;93.57
43119;BME280;28729;49.838;8.650;2022-09-03T08:00:10;99456.09;;;16.90;93.38
43119;BME280;28729;49.838;8.650;2022-09-03T08:04:13;99469.56;;;17.01;93.00
43119;BME280;28729;49.838;8.650;2022-09-03T08:08:15;99464.03;;;17.15;94.53
43119;BME280;28729;49.838;8.650;2022-09-03T08:12:20;99471.44;;;17.58;93.98
43119;BME280;28729;49.838;8.650;2022-09-03T08:16:21;99474.28;;;18.04;89.77
43119;BME280;28729;49.838;8.650;2022-09-03T08:20:23;99476.06;;;18.41;85.06
43119;BME280;28729;49.838;8.650;2022-09-03T08:24:25;99465.69;;;18.70;82.80
43119;BME280;28729;49.838;8.650;2022-09-03T08:28:27;99461.34;;;18.91;81.48
43119;BME280;28729;49.838;8.650;2022-09-03T08:32:29;99459.16;;;19.02;81.03
43119;BME280;28729;49.838;8.650;2022-09-03T08:36:32;99460.88;;;19.11;82.08
43119;BME280;28729;49.838;8.650;2022-09-03T08:40:36;99454.63;;;19.28;82.86
43119;BME280;28729;49.838;8.650;2022-09-03T08:48:51;99462.44;;;19.40;82.22
43119;BME280;28729;49.838;8.650;2022-09-03T08:53:10;99468.00;;;19.63;81.42
43119;BME280;28729;49.838;8.650;2022-09-03T08:57:15;99473.75;;;19.80;78.97
43119;BME280;28729;49.838;8.650;2022-09-03T09:02:03;99483.44;;;20.05;78.77
43119;BME280;28729;49.838;8.650;2022-09-03T09:06:51;99488.16;;;20.27;78.52
43119;BME280;28729;49.838;8.650;2022-09-03T09:11:03;99487.72;;;20.42;77.17
43119;BME280;28729;49.838;8.650;2022-09-03T09:19:27;99508.16;;;20.52;76.00
43119;BME280;28729;49.838;8.650;2022-09-03T09:23:39;99509.41;;;20.37;76.66
43119;BME280;28729;49.838;8.650;2022-09-03T09:28:01;99519.09;;;20.31;76.16
43119;BME280;28729;49.838;8.650;2022-09-03T09:32:06;99521.06;;;20.30;76.38
43119;BME280;28729;49.838;8.650;2022-09-03T09:36:12;99515.84;;;20.37;75.75
43119;BME280;28729;49.838;8.650;2022-09-03T09:40:32;99516.25;;;20.22;75.95
43119;BME280;28729;49.838;8.650;2022-09-03T09:44:35;99511.59;;;20.09;77.60
43119;BME280;28729;49.838;8.650;2022-09-03T09:48:43;99503.38;;;20.12;79.17
43119;BME280;28729;49.838;8.650;2022-09-03T09:53:02;99497.91;;;20.07;80.12
43119;BME280;28729;49.838;8.650;2022-09-03T09:57:24;99507.59;;;20.01;79.23
43119;BME280;28729;49.838;8.650;2022-09-03T10:01:26;99513.50;;;20.31;78.44
43119;BME280;28729;49.838;8.650;2022-09-03T10:05:31;99523.44;;;20.77;76.04
43119;BME280;28729;49.838;8.650;2022-09-03T10:09:38;99507.91;;;21.45;74.04
43119;BME280;28729;49.838;8.650;2022-09-03T10:13:42;99517.31;;;21.75;68.59
43119;BME280;28729;49.838;8.650;2022-09-03T10:17:56;99508.19;;;21.96;67.86
43119;BME280;28729;49.838;8.650;2022-09-03T10:22:06;99501.50;;;22.73;67.70
43119;BME280;28729;49.838;8.650;2022-09-03T10:26:13;99500.69;;;23.03;66.17
43119;BME280;28729;49.838;8.650;2022-09-03T10:30:17;99496.72;;;23.04;65.38
43119;BME280;28729;49.838;8.650;2022-09-03T10:34:37;99502.84;;;23.27;63.29
43119;BME280;28729;49.838;8.650;2022-09-03T10:38:41;99501.25;;;23.59;62.80
43119;BME280;28729;49.838;8.650;2022-09-03T10:47:36;99504.78;;;23.77;63.45
43119;BME280;28729;49.838;8.650;2022-09-03T10:56:21;99506.38;;;24.44;59.27
43119;BME280;28729;49.838;8.650;2022-09-03T11:00:27;99504.97;;;24.05;60.02
43119;BME280;28729;49.838;8.650;2022-09-03T11:04:49;99489.84;;;23.76;62.07
43119;BME280;28729;49.838;8.650;2022-09-03T11:08:59;99486.97;;;23.64;61.20
43119;BME280;28729;49.838;8.650;2022-09-03T11:13:20;99495.69;;;23.92;60.01
43119;BME280;28729;49.838;8.650;2022-09-03T11:17:30;99486.66;;;23.99;59.19
43119;BME280;28729;49.838;8.650;2022-09-03T11:21:35;99486.53;;;23.95;59.33
43119;BME280;28729;49.838;8.650;2022-09-03T11:25:45;99484.69;;;24.11;59.26
43119;BME280;28729;49.838;8.650;2022-09-03T11:30:07;99484.72;;;24.36;59.65
43119;BME280;28729;49.838;8.650;2022-09-03T11:34:15;99472.34;;;24.62;57.93
43119;BME280;28729;49.838;8.650;2022-09-03T11:38:33;99478.03;;;24.28;58.19
43119;BME280;28729;49.838;8.650;2022-09-03T11:42:36;99467.53;;;23.92;59.11
43119;BME280;28729;49.838;8.650;2022-09-03T11:46:39;99463.44;;;24.02;60.57
43119;BME280;28729;49.838;8.650;2022-09-03T11:50:53;99452.34;;;25.04;56.73
43119;BME280;28729;49.838;8.650;2022-09-03T11:54:59;99459.56;;;25.98;54.65
43119;BME280;28729;49.838;8.650;2022-09-03T12:03:14;99459.94;;;27.26;49.80
43119;BME280;28729;49.838;8.650;2022-09-03T12:07:34;99455.59;;;27.13;49.80
43119;BME280;28729;49.838;8.650;2022-09-03T12:25:15;99453.22;;;26.64;48.98
43119;BME280;28729;49.838;8.650;2022-09-03T12:29:28;99447.28;;;26.37;49.55
43119;BME280;28729;49.838;8.650;2022-09-03T12:33:39;99447.28;;;26.22;49.22
43119;BME280;28729;49.838;8.650;2022-09-03T12:37:43;99443.44;;;25.98;50.79
43119;BME280;28729;49.838;8.650;2022-09-03T12:42:12;99436.16;;;26.45;49.89
43119;BME280;28729;49.838;8.650;2022-09-03T12:46:17;99424.84;;;26.76;47.94
43119;BME280;28729;49.838;8.650;2022-09-03T12:50:23;99430.94;;;26.78;48.45
43119;BME280;28729;49.838;8.650;2022-09-03T12:54:26;99427.22;;;26.74;48.76
43119;BME280;28729;49.838;8.650;2022-09-03T12:58:35;99434.53;;;26.95;47.62
43119;BME280;28729;49.838;8.650;2022-09-03T13:03:02;99439.25;;;27.22;46.79
43119;BME280;28729;49.838;8.650;2022-09-03T13:07:20;99442.81;;;27.19;46.41
43119;BME280;28729;49.838;8.650;2022-09-03T13:11:24;99448.72;;;27.14;46.35
43119;BME280;28729;49.838;8.650;2022-09-03T13:15:27;99453.31;;;27.19;46.40
43119;BME280;28729;49.838;8.650;2022-09-03T13:36:46;99456.16;;;27.58;46.29
43119;BME280;28729;49.838;8.650;2022-09-03T13:45:27;99449.91;;;30.89;38.67
43119;BME280;28729;49.838;8.650;2022-09-03T13:49:38;99450.19;;;30.73;39.27
43119;BME280;28729;49.838;8.650;2022-09-03T13:54:10;99440.63;;;30.07;39.19
43119;BME280;28729;49.838;8.650;2022-09-03T14:07:20;99444.09;;;27.80;42.52
43119;BME280;28729;49.838;8.650;2022-09-03T14:11:31;99433.88;;;27.56;43.03
43119;BME280;28729;49.838;8.650;2022-09-03T14:19:57;99422.31;;;27.45;43.79
43119;BME280;28729;49.838;8.650;2022-09-03T14:24:58;99416.47;;;27.35;43.46
43119;BME280;28729;49.838;8.650;2022-09-03T14:28:37;99415.28;;;27.16;43.76
43119;BME280;28729;49.838;8.650;2022-09-03T14:37:07;99428.75;;;28.04;42.45
43119;BME280;28729;49.838;8.650;2022-09-03T14:41:44;99420.34;;;28.80;41.42
43119;BME280;28729;49.838;8.650;2022-09-03T14:51:00;99426.84;;;29.07;41.15
43119;BME280;28729;49.838;8.650;2022-09-03T14:55:29;99425.56;;;28.78;41.37
43119;BME280;28729;49.838;8.650;2022-09-03T15:04:16;99420.22;;;28.47;41.81
43119;BME280;28729;49.838;8.650;2022-09-03T15:08:42;99421.44;;;27.80;42.35
43119;BME280;28729;49.838;8.650;2022-09-03T15:13:07;99412.00;;;27.34;43.52
43119;BME280;28729;49.838;8.650;2022-09-03T15:17:36;99418.78;;;26.94;43.97
43119;BME280;28729;49.838;8.650;2022-09-03T15:21:51;99414.38;;;26.45;44.85
43119;BME280;28729;49.838;8.650;2022-09-03T15:26:17;99418.31;;;26.09;46.04
43119;BME280;28729;49.838;8.650;2022-09-03T15:30:20;99420.59;;;25.75;46.64
43119;BME280;28729;49.838;8.650;2022-09-03T15:34:30;99423.91;;;25.49;46.77
43119;BME280;28729;49.838;8.650;2022-09-03T15:42:56;99434.59;;;25.03;48.42
43119;BME280;28729;49.838;8.650;2022-09-03T15:47:00;99433.47;;;24.79;49.12
43119;BME280;28729;49.838;8.650;2022-09-03T15:51:41;99439.94;;;24.68;49.46
43119;BME280;28729;49.838;8.650;2022-09-03T15:55:46;99441.84;;;24.51;50.01
43119;BME280;28729;49.838;8.650;2022-09-03T16:08:16;99442.38;;;24.32;50.88
43119;BME280;28729;49.838;8.650;2022-09-03T16:17:25;99429.47;;;24.31;51.83
43119;BME280;28729;49.838;8.650;2022-09-03T16:25:34;99440.63;;;24.16;52.36
43119;BME280;28729;49.838;8.650;2022-09-03T16:29:39;99440.13;;;24.14;52.00
43119;BME280;28729;49.838;8.650;2022-09-03T16:38:25;99444.06;;;23.88;53.65
43119;BME280;28729;49.838;8.650;2022-09-03T16:42:40;99448.84;;;23.75;54.93
43119;BME280;28729;49.838;8.650;2022-09-03T16:51:23;99459.75;;;23.35;57.34
43119;BME280;28729;49.838;8.650;2022-09-03T16:55:56;99463.38;;;23.23;57.54
43119;BME280;28729;49.838;8.650;2022-09-03T17:00:19;99485.69;;;22.90;59.89
43119;BME280;28729;49.838;8.650;2022-09-03T17:17:11;99493.72;;;21.59;62.17
43119;BME280;28729;49.838;8.650;2022-09-03T17:21:29;99485.13;;;21.29;62.21
43119;BME280;28729;49.838;8.650;2022-09-03T17:26:01;99489.41;;;21.01;63.11
43119;BME280;28729;49.838;8.650;2022-09-03T17:30:09;99486.84;;;20.73;63.94
43119;BME280;28729;49.838;8.650;2022-09-03T17:47:48;99493.41;;;20.20;66.98
43119;BME280;28729;49.838;8.650;2022-09-03T17:52:07;99505.19;;;20.08;67.77
43119;BME280;28729;49.838;8.650;2022-09-03T17:56:26;99502.47;;;19.94;68.29
43119;BME280;28729;49.838;8.650;2022-09-03T18:00:35;99505.47;;;19.75;69.09
43119;BME280;28729;49.838;8.650;2022-09-03T18:04:45;99516.97;;;19.60;70.11
43119;BME280;28729;49.838;8.650;2022-09-03T18:17:47;99553.31;;;19.24;72.15
43119;BME280;28729;49.838;8.650;2022-09-03T18:21:52;99555.09;;;19.20;72.51
43119;BME280;28729;49.838;8.650;2022-09-03T18:26:23;99560.78;;;19.15;73.24
43119;BME280;28729;49.838;8.650;2022-09-03T18:30:44;99558.94;;;19.10;73.00
43119;BME280;28729;49.838;8.650;2022-09-03T18:35:07;99573.31;;;19.03;74.03
43119;BME280;28729;49.838;8.650;2022-09-03T18:39:28;99571.91;;;18.92;74.65
43119;BME280;28729;49.838;8.650;2022-09-03T18:44:29;99580.47;;;18.82;75.75
43119;BME280;28729;49.838;8.650;2022-09-03T18:49:24;99568.13;;;18.69;75.95
43119;BME280;28729;49.838;8.650;2022-09-03T18:58:30;99571.84;;;18.51;77.44
43119;BME280;28729;49.838;8.650;2022-09-03T19:08:01;99580.28;;;18.32;78.66
43119;BME280;28729;49.838;8.650;2022-09-03T19:17:05;99581.38;;;18.17;79.09
43119;BME280;28729;49.838;8.650;2022-09-03T19:21:42;99582.59;;;18.11;80.08
43119;BME280;28729;49.838;8.650;2022-09-03T19:26:20;99585.72;;;18.09;80.54
43119;BME280;28729;49.838;8.650;2022-09-03T19:31:00;99592.19;;;18.05;81.51
43119;BME280;28729;49.838;8.650;2022-09-03T19:35:35;99585.78;;;18.04;81.83
43119;BME280;28729;49.838;8.650;2022-09-03T19:45:07;99595.72;;;18.10;82.03
43119;BME280;28729;49.838;8.650;2022-09-03T19:49:55;99597.91;;;18.13;82.80
43119;BME280;28729;49.838;8.650;2022-09-03T19:54:22;99593.97;;;18.14;82.49
43119;BME280;28729;49.838;8.650;2022-09-03T19:58:55;99600.91;;;18.17;83.24
43119;BME280;28729;49.838;8.650;2022-09-03T20:03:17;99605.38;;;18.18;83.59
43119;BME280;28729;49.838;8.650;2022-09-03T20:07:38;99608.97;;;18.18;84.11
43119;BME280;28729;49.838;8.650;2022-09-03T20:12:03;99605.66;;;18.16;84.67
43119;BME280;28729;49.838;8.650;2022-09-03T20:16:30;99617.13;;;18.15;85.38
43119;BME280;28729;49.838;8.650;2022-09-03T20:21:24;99615.78;;;18.12;86.20
43119;BME280;28729;49.838;8.650;2022-09-03T20:25:08;99617.22;;;18.10;86.81
43119;BME280;28729;49.838;8.650;2022-09-03T20:29:29;99627.00;;;18.07;87.27
43119;BME280;28729;49.838;8.650;2022-09-03T20:42:39;99631.19;;;17.91;89.73
43119;BME280;28729;49.838;8.650;2022-09-03T20:47:02;99624.25;;;17.88;90.35
43119;BME280;28729;49.838;8.650;2022-09-03T20:51:16;99622.69;;;17.82;91.38
43119;BME280;28729;49.838;8.650;2022-09-03T20:55:27;99628.00;;;17.79;92.22
43119;BME280;28729;49.838;8.650;2022-09-03T20:59:45;99639.22;;;17.73;92.81
43119;BME280;28729;49.838;8.650;2022-09-03T21:16:58;99640.88;;;17.56;96.20
43119;BME280;28729;49.838;8.650;2022-09-03T21:21:28;99645.38;;;17.51;96.36
43119;BME280;28729;49.838;8.650;2022-09-03T21:25:41;99651.25;;;17.50;96.98
43119;BME280;28729;49.838;8.650;2022-09-03T21:29:55;99656.50;;;17.51;98.05
43119;BME280;28729;49.838;8.650;2022-09-03T21:34:08;99659.56;;;17.55;98.90
43119;BME280;28729;49.838;8.650;2022-09-03T21:38:16;99667.81;;;17.60;99.65
43119;BME280;28729;49.838;8.650;2022-09-03T21:42:33;99668.28;;;17.67;99.51
43119;BME280;28729;49.838;8.650;2022-09-03T21:46:44;99664.59;;;17.72;99.76
43119;BME280;28729;49.838;8.650;2022-09-03T21:50:57;99667.38;;;17.72;100.00
43119;BME280;28729;49.838;8.650;2022-09-03T21:55:17;99664.09;;;17.70;100.00
43119;BME280;28729;49.838;8.650;2022-09-03T22:03:30;99679.50;;;17.62;100.00
43119;BME280;28729;49.838;8.650;2022-09-03T22:08:26;99679.66;;;17.52;100.00
43119;BME280;28729;49.838;8.650;2022-09-03T22:12:46;99683.09;;;17.44;100.00
43119;BME280;28729;49.838;8.650;2022-09-03T22:16:59;99687.69;;;17.35;100.00
43119;BME280;28729;49.838;8.650;2022-09-03T22:25:16;99672.25;;;17.18;100.00
43119;BME280;28729;49.838;8.650;2022-09-03T22:34:16;99676.00;;;17.08;100.00
43119;BME280;28729;49.838;8.650;2022-09-03T22:38:34;99672.44;;;17.03;100.00
43119;BME280;28729;49.838;8.650;2022-09-03T22:43:08;99688.09;;;16.99;100.00
43119;BME280;28729;49.838;8.650;2022-09-03T22:56:18;99682.09;;;16.87;100.00
43119;BME280;28729;49.838;8.650;2022-09-03T23:00:22;99686.81;;;16.86;100.00
43119;BME280;28729;49.838;8.650;2022-09-03T23:04:29;99689.38;;;16.82;100.00
43119;BME280;28729;49.838;8.650;2022-09-03T23:08:46;99689.97;;;16.79;100.00
43119;BME280;28729;49.838;8.650;2022-09-03T23:13:18;99690.56;;;16.76;100.00
43119;BME280;28729;49.838;8.650;2022-09-03T23:17:24;99690.56;;;16.71;100.00
43119;BME280;28729;49.838;8.650;2022-09-03T23:21:36;99691.72;;;16.65;100.00
43119;BME280;28729;49.838;8.650;2022-09-03T23:25:46;99695.94;;;16.62;100.00
43119;BME280;28729;49.838;8.650;2022-09-03T23:29:53;99697.97;;;16.57;100.00
43119;BME280;28729;49.838;8.650;2022-09-03T23:33:55;99703.78;;;16.55;100.00
43119;BME280;28729;49.838;8.650;2022-09-03T23:38:19;99706.88;;;16.54;100.00
43119;BME280;28729;49.838;8.650;2022-09-03T23:42:33;99711.06;;;16.51;100.00
43119;BME280;28729;49.838;8.650;2022-09-03T23:47:32;99709.13;;;16.52;100.00
